Time;durP1;ratioP1;P1;durP2;ratioP2;P2;SDS_P1;SDS_P2;PMS_P1;PMS_P2;Temp;Humidity;BMP_temperature;BMP_pressure;BME280_temperature;BME280_humidity;BME280_pressure;Samples;Min_cycle;Max_cycle;Signal;HPM_P1;HPM_P2
2023/06/06 00:01:29;;;;;;;5.95;4.22;;;;;;;;;;5055675;28;20031;-75
2023/06/06 00:03:56;;;;;;;7.82;4.18;;;;;;;;;;5063103;28;20035;-75
2023/06/06 00:06:24;;;;;;;7.10;3.60;;;;;;;;;;5058267;28;20034;-75
2023/06/06 00:08:50;;;;;;;7.10;3.92;;;;;;;;;;5071335;28;20024;-74
2023/06/06 00:11:16;;;;;;;6.95;4.30;;;;;;;;;;5063949;28;20086;-74
2023/06/06 00:13:42;;;;;;;6.07;4.00;;;;;;;;;;5056029;28;20171;-74
2023/06/06 00:16:08;;;;;;;8.45;4.28;;;;;;;;;;5058797;28;20078;-75
2023/06/06 00:18:33;;;;;;;7.15;4.18;;;;;;;;;;5079247;28;20031;-74
2023/06/06 00:20:59;;;;;;;7.70;4.10;;;;;;;;;;5058213;28;20036;-75
2023/06/06 00:23:25;;;;;;;6.63;4.15;;;;;;;;;;5059371;28;20127;-75
2023/06/06 00:25:52;;;;;;;7.05;4.40;;;;;;;;;;5066506;28;20089;-74
2023/06/06 00:28:18;;;;;;;5.90;4.00;;;;;;;;;;5062044;28;20031;-75
2023/06/06 00:30:43;;;;;;;7.20;4.20;;;;;;;;;;5086791;28;20020;-74
2023/06/06 00:33:09;;;;;;;6.68;4.35;;;;;;;;;;5064360;28;20028;-75
2023/06/06 00:35:34;;;;;;;8.05;4.28;;;;;;;;;;5060286;28;20059;-74
2023/06/06 00:38:00;;;;;;;7.65;3.83;;;;;;;;;;5055927;28;20415;-75
2023/06/06 00:40:26;;;;;;;7.47;4.05;;;;;;;;;;5083692;28;20056;-75
2023/06/06 00:42:51;;;;;;;5.78;3.85;;;;;;;;;;5080774;28;20028;-75
2023/06/06 00:45:17;;;;;;;8.10;4.05;;;;;;;;;;5062977;28;20028;-75
2023/06/06 00:47:44;;;;;;;6.43;3.63;;;;;;;;;;5079430;28;20100;-75
2023/06/06 00:50:12;;;;;;;7.90;4.10;;;;;;;;;;5075191;28;20051;-75
2023/06/06 00:52:40;;;;;;;6.90;4.05;;;;;;;;;;5059887;28;20028;-76
2023/06/06 00:55:05;;;;;;;6.15;4.18;;;;;;;;;;5059192;28;20427;-75
2023/06/06 00:57:31;;;;;;;6.65;4.53;;;;;;;;;;5077174;28;20024;-75
2023/06/06 00:59:57;;;;;;;7.85;4.25;;;;;;;;;;5060982;28;20066;-74
2023/06/06 01:02:24;;;;;;;6.50;4.10;;;;;;;;;;5057255;28;20024;-76
2023/06/06 01:04:50;;;;;;;7.40;4.30;;;;;;;;;;5076164;28;20056;-75
2023/06/06 01:07:17;;;;;;;6.97;3.75;;;;;;;;;;5077333;28;20111;-74
2023/06/06 01:09:44;;;;;;;7.03;3.83;;;;;;;;;;5080990;28;20484;-74
2023/06/06 01:12:30;;;;;;;7.63;3.80;;;;;;;;;;5059920;28;20032;-74
2023/06/06 01:15:17;;;;;;;8.00;4.05;;;;;;;;;;5071824;28;20518;-74
2023/06/06 01:17:46;;;;;;;6.55;4.10;;;;;;;;;;5057655;28;20033;-75
2023/06/06 01:20:12;;;;;;;6.43;4.07;;;;;;;;;;5057100;28;20078;-75
2023/06/06 01:22:39;;;;;;;6.63;3.97;;;;;;;;;;5056422;28;20476;-76
2023/06/06 01:25:06;;;;;;;6.97;4.07;;;;;;;;;;5063023;28;20106;-74
2023/06/06 01:27:33;;;;;;;6.85;3.80;;;;;;;;;;5062184;28;20039;-74
2023/06/06 01:29:59;;;;;;;6.82;3.88;;;;;;;;;;5058122;28;20037;-74
2023/06/06 01:32:41;;;;;;;7.00;4.40;;;;;;;;;;5077415;28;20222;-75
2023/06/06 01:35:21;;;;;;;7.07;4.20;;;;;;;;;;5076868;28;21394;-75
2023/06/06 01:38:03;;;;;;;7.45;4.30;;;;;;;;;;5063890;28;20449;-74
2023/06/06 01:40:31;;;;;;;7.43;4.65;;;;;;;;;;5057232;28;20396;-75
2023/06/06 01:42:57;;;;;;;6.85;3.67;;;;;;;;;;5060387;28;20024;-75
2023/06/06 01:45:27;;;;;;;6.20;3.55;;;;;;;;;;5075435;28;20413;-75
2023/06/06 01:47:53;;;;;;;7.10;3.97;;;;;;;;;;5056219;28;20025;-75
2023/06/06 01:50:18;;;;;;;5.32;3.53;;;;;;;;;;5057050;28;20028;-74
2023/06/06 01:52:44;;;;;;;6.28;3.63;;;;;;;;;;5075094;28;20032;-74
2023/06/06 01:55:10;;;;;;;6.55;3.97;;;;;;;;;;5075264;28;20082;-74
2023/06/06 01:57:35;;;;;;;7.80;4.10;;;;;;;;;;5080335;28;20016;-75
2023/06/06 02:00:03;;;;;;;7.28;3.85;;;;;;;;;;5061215;28;20031;-75
2023/06/06 02:02:29;;;;;;;8.02;4.28;;;;;;;;;;5081650;28;20028;-75
2023/06/06 02:04:54;;;;;;;6.35;4.07;;;;;;;;;;5079513;28;20031;-74
2023/06/06 02:07:20;;;;;;;6.53;3.85;;;;;;;;;;5058372;28;20071;-74
2023/06/06 02:09:45;;;;;;;7.00;4.13;;;;;;;;;;5074532;28;20060;-74
2023/06/06 02:12:11;;;;;;;6.47;3.55;;;;;;;;;;5074886;28;20438;-75
2023/06/06 02:14:37;;;;;;;5.68;3.88;;;;;;;;;;5055868;28;20050;-75
2023/06/06 02:17:03;;;;;;;7.40;4.07;;;;;;;;;;5078541;28;20076;-75
2023/06/06 02:19:30;;;;;;;7.60;3.80;;;;;;;;;;5054944;28;20055;-75
2023/06/06 02:21:56;;;;;;;7.82;3.88;;;;;;;;;;5073527;28;20059;-75
2023/06/06 02:24:24;;;;;;;7.65;4.03;;;;;;;;;;5067872;28;20439;-75
2023/06/06 02:26:52;;;;;;;7.20;4.50;;;;;;;;;;5074550;28;20043;-75
2023/06/06 02:29:18;;;;;;;6.30;3.90;;;;;;;;;;5078587;28;20380;-74
2023/06/06 02:31:43;;;;;;;6.72;4.22;;;;;;;;;;5073573;28;20040;-74
2023/06/06 02:34:08;;;;;;;8.38;4.18;;;;;;;;;;5073921;28;20405;-74
2023/06/06 02:36:34;;;;;;;6.63;3.70;;;;;;;;;;5055843;28;20463;-74
2023/06/06 02:39:00;;;;;;;7.82;4.53;;;;;;;;;;5072206;28;20042;-75
2023/06/06 02:41:26;;;;;;;6.38;3.88;;;;;;;;;;5072980;28;20029;-75
2023/06/06 02:43:51;;;;;;;6.63;3.80;;;;;;;;;;5075865;28;20056;-74
2023/06/06 02:46:17;;;;;;;7.53;4.55;;;;;;;;;;5074088;28;20036;-74
2023/06/06 02:48:48;;;;;;;7.05;4.05;;;;;;;;;;5057089;28;20024;-74
2023/06/06 02:51:14;;;;;;;5.65;3.65;;;;;;;;;;5060377;28;20037;-74
2023/06/06 02:53:40;;;;;;;6.45;3.88;;;;;;;;;;5078125;28;20541;-74
2023/06/06 02:56:06;;;;;;;6.53;3.90;;;;;;;;;;5059052;28;20036;-75
2023/06/06 02:58:32;;;;;;;6.43;4.25;;;;;;;;;;5078472;28;20020;-75
2023/06/06 03:01:00;;;;;;;6.30;4.22;;;;;;;;;;5056761;28;20024;-75
2023/06/06 03:03:26;;;;;;;5.95;3.65;;;;;;;;;;5057782;28;20489;-74
2023/06/06 03:05:52;;;;;;;6.65;4.13;;;;;;;;;;5076568;28;20027;-74
2023/06/06 03:08:21;;;;;;;5.78;3.65;;;;;;;;;;5074652;28;20017;-74
2023/06/06 03:10:47;;;;;;;7.35;4.13;;;;;;;;;;5079055;28;20043;-74
2023/06/06 03:13:13;;;;;;;6.82;3.95;;;;;;;;;;5083280;28;20437;-75
2023/06/06 03:15:44;;;;;;;9.00;3.80;;;;;;;;;;5082026;28;20035;-74
2023/06/06 03:18:20;;;;;;;5.80;3.65;;;;;;;;;;5080631;28;20024;-75
2023/06/06 03:20:48;;;;;;;6.15;4.00;;;;;;;;;;5080379;28;20047;-75
2023/06/06 03:23:13;;;;;;;7.10;3.60;;;;;;;;;;5057241;28;20480;-74
2023/06/06 03:25:43;;;;;;;7.43;4.40;;;;;;;;;;5059793;28;20121;-74
2023/06/06 03:28:09;;;;;;;6.35;3.83;;;;;;;;;;5059378;28;20162;-75
2023/06/06 03:30:35;;;;;;;8.20;4.03;;;;;;;;;;5081748;28;20028;-74
2023/06/06 03:33:00;;;;;;;6.07;3.90;;;;;;;;;;5062785;28;20028;-75
2023/06/06 03:35:28;;;;;;;7.75;3.90;;;;;;;;;;5075611;28;20513;-74
2023/06/06 03:37:55;;;;;;;6.85;3.67;;;;;;;;;;5057818;28;20446;-74
2023/06/06 03:40:22;;;;;;;7.43;4.43;;;;;;;;;;5074697;28;20017;-74
2023/06/06 03:42:48;;;;;;;7.85;4.10;;;;;;;;;;5072490;28;20407;-74
2023/06/06 03:45:14;;;;;;;7.78;4.32;;;;;;;;;;5072475;28;20039;-75
2023/06/06 03:47:39;;;;;;;6.93;4.18;;;;;;;;;;5075975;28;20020;-74
2023/06/06 03:50:05;;;;;;;7.30;4.00;;;;;;;;;;5057903;28;20492;-75
2023/06/06 03:52:30;;;;;;;6.75;3.97;;;;;;;;;;5061237;28;20026;-74
2023/06/06 03:54:56;;;;;;;6.75;4.15;;;;;;;;;;5075590;28;20047;-74
2023/06/06 03:57:21;;;;;;;8.30;4.53;;;;;;;;;;5060740;28;20043;-74
2023/06/06 03:59:46;;;;;;;6.72;4.22;;;;;;;;;;5066375;28;20022;-74
2023/06/06 04:02:12;;;;;;;7.28;4.22;;;;;;;;;;5058217;28;20127;-75
2023/06/06 04:04:40;;;;;;;6.97;4.40;;;;;;;;;;5064105;28;20115;-74
2023/06/06 04:07:06;;;;;;;6.18;3.92;;;;;;;;;;5083340;28;20115;-74
2023/06/06 04:09:31;;;;;;;7.57;4.75;;;;;;;;;;5062371;28;20127;-75
2023/06/06 04:11:57;;;;;;;8.07;4.72;;;;;;;;;;5057670;28;20033;-74
2023/06/06 04:14:22;;;;;;;8.15;4.40;;;;;;;;;;5061223;28;20028;-74
2023/06/06 04:16:48;;;;;;;9.68;4.50;;;;;;;;;;5078788;28;20458;-75
2023/06/06 04:19:13;;;;;;;6.85;4.30;;;;;;;;;;5057849;28;20032;-74
2023/06/06 04:21:38;;;;;;;7.78;4.80;;;;;;;;;;5076261;28;20031;-75
2023/06/06 04:24:04;;;;;;;8.02;4.53;;;;;;;;;;5089052;28;20035;-74
2023/06/06 04:26:33;;;;;;;7.35;4.47;;;;;;;;;;5074206;28;20124;-74
2023/06/06 04:28:59;;;;;;;6.82;4.35;;;;;;;;;;5079161;28;20066;-75
2023/06/06 04:31:26;;;;;;;6.80;4.30;;;;;;;;;;5076907;28;20732;-75
2023/06/06 04:33:55;;;;;;;8.23;4.82;;;;;;;;;;5067415;28;20028;-75
2023/06/06 04:36:21;;;;;;;6.60;4.22;;;;;;;;;;5080948;28;20028;-75
2023/06/06 04:38:48;;;;;;;7.95;4.38;;;;;;;;;;5075235;28;20384;-74
2023/06/06 04:41:15;;;;;;;9.23;5.07;;;;;;;;;;5078713;28;20115;-74
2023/06/06 04:43:42;;;;;;;5.43;3.53;;;;;;;;;;5078170;28;20024;-75
2023/06/06 04:46:08;;;;;;;7.57;4.80;;;;;;;;;;5059834;28;20035;-75
2023/06/06 04:48:33;;;;;;;5.85;3.42;;;;;;;;;;5071145;28;20023;-75
2023/06/06 04:50:59;;;;;;;7.93;4.45;;;;;;;;;;5054914;28;20040;-75
2023/06/06 04:53:25;;;;;;;6.68;4.18;;;;;;;;;;5061474;28;20404;-74
2023/06/06 04:55:52;;;;;;;7.68;4.07;;;;;;;;;;5060339;28;20033;-75
2023/06/06 04:58:20;;;;;;;8.93;4.57;;;;;;;;;;5062590;28;20157;-75
2023/06/06 05:00:46;;;;;;;10.27;4.78;;;;;;;;;;5058425;28;20035;-74
2023/06/06 05:03:16;;;;;;;8.63;4.50;;;;;;;;;;5086783;28;20081;-75
2023/06/06 05:05:41;;;;;;;8.05;4.50;;;;;;;;;;5061102;28;20500;-74
2023/06/06 05:08:06;;;;;;;7.70;4.28;;;;;;;;;;5059671;28;20031;-75
2023/06/06 05:10:32;;;;;;;7.40;4.82;;;;;;;;;;5084020;28;20028;-74
2023/06/06 05:12:57;;;;;;;7.35;3.83;;;;;;;;;;5064211;28;20481;-74
2023/06/06 05:15:22;;;;;;;7.72;4.35;;;;;;;;;;5077123;28;20028;-75
2023/06/06 05:17:55;;;;;;;7.05;4.40;;;;;;;;;;5079162;28;20496;-75
2023/06/06 05:20:23;;;;;;;5.57;3.83;;;;;;;;;;5085669;28;20024;-75
2023/06/06 05:22:49;;;;;;;7.85;4.40;;;;;;;;;;5059087;28;20038;-75
2023/06/06 05:25:15;;;;;;;8.75;4.90;;;;;;;;;;5080455;28;20039;-74
2023/06/06 05:27:40;;;;;;;6.55;4.05;;;;;;;;;;5076432;28;20028;-74
2023/06/06 05:30:06;;;;;;;7.45;4.50;;;;;;;;;;5078174;28;20032;-75
2023/06/06 05:32:32;;;;;;;6.20;3.88;;;;;;;;;;5057855;28;20468;-74
2023/06/06 05:34:58;;;;;;;7.90;4.43;;;;;;;;;;5082212;28;21655;-75
2023/06/06 05:37:23;;;;;;;6.43;3.92;;;;;;;;;;5076162;28;20064;-74
2023/06/06 05:39:48;;;;;;;8.75;4.28;;;;;;;;;;5062342;28;20016;-75
2023/06/06 05:42:14;;;;;;;9.75;4.40;;;;;;;;;;5077176;28;20028;-75
2023/06/06 05:44:39;;;;;;;8.43;4.22;;;;;;;;;;5078028;28;20028;-74
2023/06/06 05:47:05;;;;;;;6.78;4.22;;;;;;;;;;5058142;28;20064;-74
2023/06/06 05:49:31;;;;;;;8.02;4.60;;;;;;;;;;5077409;28;20048;-74
2023/06/06 05:51:56;;;;;;;7.68;4.45;;;;;;;;;;5063303;28;20020;-75
2023/06/06 05:54:22;;;;;;;7.93;4.45;;;;;;;;;;5083613;28;20035;-74
2023/06/06 05:56:48;;;;;;;7.65;4.18;;;;;;;;;;5055309;28;20051;-75
2023/06/06 05:59:14;;;;;;;9.05;4.78;;;;;;;;;;5059023;28;20388;-75
2023/06/06 06:01:39;;;;;;;6.93;4.30;;;;;;;;;;5074560;28;20017;-75
2023/06/06 06:04:06;;;;;;;7.30;3.67;;;;;;;;;;5077378;28;20028;-75
2023/06/06 06:06:31;;;;;;;6.90;4.00;;;;;;;;;;5065855;28;20111;-75
2023/06/06 06:08:57;;;;;;;7.63;3.83;;;;;;;;;;5055500;28;20174;-75
2023/06/06 06:11:23;;;;;;;7.60;4.35;;;;;;;;;;5083287;28;20029;-75
2023/06/06 06:13:48;;;;;;;6.95;3.90;;;;;;;;;;5077974;28;20028;-75
2023/06/06 06:16:14;;;;;;;9.63;4.30;;;;;;;;;;5052379;28;20039;-75
2023/06/06 06:18:39;;;;;;;8.60;4.25;;;;;;;;;;5080828;28;20165;-75
2023/06/06 06:21:05;;;;;;;8.07;3.85;;;;;;;;;;5079912;28;20032;-75
2023/06/06 06:23:30;;;;;;;7.32;3.60;;;;;;;;;;5060304;28;20085;-75
2023/06/06 06:25:56;;;;;;;7.57;4.05;;;;;;;;;;5064356;28;20039;-75
2023/06/06 06:28:23;;;;;;;10.05;4.72;;;;;;;;;;5074798;28;20029;-75
2023/06/06 06:30:49;;;;;;;8.25;4.13;;;;;;;;;;5084745;28;20034;-75
2023/06/06 06:33:15;;;;;;;7.80;4.20;;;;;;;;;;5081459;28;20020;-75
2023/06/06 06:35:42;;;;;;;7.15;3.63;;;;;;;;;;5052885;28;20111;-75
2023/06/06 06:38:07;;;;;;;8.43;4.47;;;;;;;;;;5080590;28;20032;-75
2023/06/06 06:40:32;;;;;;;7.97;3.97;;;;;;;;;;5061109;28;20041;-76
2023/06/06 06:42:58;;;;;;;7.65;3.90;;;;;;;;;;5061716;28;20020;-75
2023/06/06 06:45:24;;;;;;;6.45;4.15;;;;;;;;;;5075419;28;20535;-75
2023/06/06 06:47:49;;;;;;;7.75;3.58;;;;;;;;;;5079058;28;20107;-75
2023/06/06 06:50:15;;;;;;;8.73;4.20;;;;;;;;;;5056546;28;20108;-75
2023/06/06 06:52:41;;;;;;;8.00;4.00;;;;;;;;;;5076873;28;20061;-76
2023/06/06 06:55:07;;;;;;;8.38;3.80;;;;;;;;;;5074769;28;20020;-75
2023/06/06 06:57:33;;;;;;;9.00;4.03;;;;;;;;;;5083549;28;20035;-75
2023/06/06 07:00:00;;;;;;;5.57;3.75;;;;;;;;;;5083078;28;20281;-76
2023/06/06 07:02:27;;;;;;;6.53;3.55;;;;;;;;;;5081623;28;20050;-76
2023/06/06 07:04:59;;;;;;;7.28;4.00;;;;;;;;;;5075383;28;20119;-76
2023/06/06 07:07:25;;;;;;;9.03;4.87;;;;;;;;;;5058175;28;20118;-76
2023/06/06 07:09:50;;;;;;;5.43;3.55;;;;;;;;;;5061276;28;20108;-75
2023/06/06 07:12:16;;;;;;;7.55;4.10;;;;;;;;;;5080373;28;20379;-75
2023/06/06 07:14:41;;;;;;;8.68;4.32;;;;;;;;;;5057116;28;20094;-76
2023/06/06 07:17:07;;;;;;;8.30;4.32;;;;;;;;;;5081626;28;20500;-75
2023/06/06 07:19:33;;;;;;;8.40;4.18;;;;;;;;;;5079094;28;20066;-75
2023/06/06 07:21:59;;;;;;;8.43;4.38;;;;;;;;;;5075831;28;20430;-75
2023/06/06 07:24:24;;;;;;;8.23;4.90;;;;;;;;;;5080201;28;20029;-75
2023/06/06 07:26:53;;;;;;;7.25;4.20;;;;;;;;;;5061699;28;20028;-75
2023/06/06 07:29:19;;;;;;;9.02;4.60;;;;;;;;;;5059011;28;20115;-76
2023/06/06 07:31:44;;;;;;;6.85;4.43;;;;;;;;;;5061960;28;20528;-76
2023/06/06 07:34:10;;;;;;;6.15;4.20;;;;;;;;;;5082242;28;20066;-76
2023/06/06 07:36:38;;;;;;;8.20;4.50;;;;;;;;;;5078796;28;20070;-75
2023/06/06 07:39:04;;;;;;;7.05;4.40;;;;;;;;;;5062543;28;20482;-76
2023/06/06 07:41:30;;;;;;;8.73;4.60;;;;;;;;;;5059789;28;20025;-75
2023/06/06 07:43:57;;;;;;;5.97;4.13;;;;;;;;;;5082711;28;20236;-75
2023/06/06 07:46:22;;;;;;;7.43;3.78;;;;;;;;;;5082186;28;20012;-75
2023/06/06 07:48:48;;;;;;;7.95;4.38;;;;;;;;;;5083410;28;20026;-76
2023/06/06 07:51:13;;;;;;;7.05;4.10;;;;;;;;;;5080975;28;20127;-76
2023/06/06 07:53:38;;;;;;;9.52;4.28;;;;;;;;;;5076836;28;20035;-75
2023/06/06 07:56:06;;;;;;;6.82;3.85;;;;;;;;;;5084950;28;20020;-76
2023/06/06 07:58:41;;;;;;;10.98;4.20;;;;;;;;;;5076318;28;20016;-76
2023/06/06 08:01:09;;;;;;;8.30;4.60;;;;;;;;;;5080776;28;20016;-76
2023/06/06 08:03:35;;;;;;;6.90;4.20;;;;;;;;;;5074021;28;20384;-75
2023/06/06 08:06:00;;;;;;;8.07;3.67;;;;;;;;;;5073910;28;20028;-76
2023/06/06 08:08:26;;;;;;;7.70;3.67;;;;;;;;;;5077089;28;20032;-75
2023/06/06 08:10:52;;;;;;;6.22;3.50;;;;;;;;;;5060965;28;20023;-76
2023/06/06 08:13:18;;;;;;;8.32;3.80;;;;;;;;;;5062560;28;20078;-75
2023/06/06 08:15:44;;;;;;;6.20;3.70;;;;;;;;;;5083300;28;20028;-75
2023/06/06 08:18:09;;;;;;;6.30;3.83;;;;;;;;;;5075602;28;20032;-76
2023/06/06 08:20:34;;;;;;;7.43;3.85;;;;;;;;;;5069323;28;20365;-76
2023/06/06 08:22:59;;;;;;;7.80;3.97;;;;;;;;;;5080572;28;20082;-76
2023/06/06 08:25:25;;;;;;;9.38;4.00;;;;;;;;;;5083875;28;20032;-76
2023/06/06 08:27:50;;;;;;;8.07;4.15;;;;;;;;;;5060451;28;20032;-76
2023/06/06 08:30:16;;;;;;;8.65;3.67;;;;;;;;;;5078291;28;20044;-76
2023/06/06 08:32:41;;;;;;;6.65;3.83;;;;;;;;;;5077037;28;20024;-76
2023/06/06 08:35:07;;;;;;;6.07;3.63;;;;;;;;;;5082530;28;20116;-76
2023/06/06 08:37:33;;;;;;;6.32;4.03;;;;;;;;;;5063191;28;20029;-75
2023/06/06 08:39:58;;;;;;;6.90;4.13;;;;;;;;;;5064845;28;20032;-76
2023/06/06 08:42:26;;;;;;;10.15;3.83;;;;;;;;;;5081504;28;20516;-75
2023/06/06 08:44:52;;;;;;;8.05;4.57;;;;;;;;;;5080473;28;20019;-75
2023/06/06 08:47:23;;;;;;;7.80;4.20;;;;;;;;;;5077476;28;20039;-74
2023/06/06 08:49:49;;;;;;;7.18;4.07;;;;;;;;;;5078226;28;20077;-75
2023/06/06 08:52:16;;;;;;;9.80;3.83;;;;;;;;;;5061476;28;20125;-74
2023/06/06 08:54:42;;;;;;;6.88;4.45;;;;;;;;;;5081048;28;20031;-76
2023/06/06 08:57:08;;;;;;;8.65;4.05;;;;;;;;;;5080783;28;20064;-75
2023/06/06 08:59:40;;;;;;;8.95;4.28;;;;;;;;;;5077489;28;20098;-74
2023/06/06 09:02:06;;;;;;;7.57;3.90;;;;;;;;;;5080732;28;20039;-75
2023/06/06 09:04:33;;;;;;;7.60;4.28;;;;;;;;;;5057573;28;20094;-74
2023/06/06 09:07:12;;;;;;;6.00;3.72;;;;;;;;;;5075837;28;20411;-76
2023/06/06 09:09:40;;;;;;;7.45;4.10;;;;;;;;;;5076637;28;20027;-75
2023/06/06 09:12:07;;;;;;;8.93;3.95;;;;;;;;;;5078878;28;20028;-74
2023/06/06 09:14:32;;;;;;;7.05;3.67;;;;;;;;;;5057946;28;20127;-75
2023/06/06 09:16:58;;;;;;;5.95;3.20;;;;;;;;;;5080325;28;20443;-73
2023/06/06 09:19:25;;;;;;;6.05;3.80;;;;;;;;;;5082379;28;20020;-76
2023/06/06 09:21:51;;;;;;;7.10;3.88;;;;;;;;;;5080438;28;20019;-75
2023/06/06 09:24:17;;;;;;;8.32;3.60;;;;;;;;;;5060522;28;20377;-76
2023/06/06 09:26:42;;;;;;;6.57;3.88;;;;;;;;;;5085070;28;20044;-75
2023/06/06 09:29:08;;;;;;;7.50;4.35;;;;;;;;;;5076961;28;20036;-75
2023/06/06 09:31:38;;;;;;;7.90;4.05;;;;;;;;;;5074508;28;20465;-75
2023/06/06 09:34:04;;;;;;;7.70;3.72;;;;;;;;;;5076061;28;20035;-76
2023/06/06 09:36:31;;;;;;;8.20;3.30;;;;;;;;;;5077235;28;20033;-75
2023/06/06 09:39:15;;;;;;;6.70;3.33;;;;;;;;;;5085417;28;20442;-75
2023/06/06 09:41:48;;;;;;;5.40;3.22;;;;;;;;;;5077003;28;20438;-75
2023/06/06 09:44:21;;;;;;;6.80;4.07;;;;;;;;;;5058517;28;20051;-75
2023/06/06 09:46:50;;;;;;;7.95;3.75;;;;;;;;;;5061976;28;20044;-75
2023/06/06 09:49:15;;;;;;;5.97;3.20;;;;;;;;;;5058337;28;20472;-76
2023/06/06 09:51:45;;;;;;;8.75;3.60;;;;;;;;;;5056876;28;20078;-75
2023/06/06 09:54:11;;;;;;;8.20;3.60;;;;;;;;;;5076825;28;20032;-75
2023/06/06 09:56:40;;;;;;;5.20;3.20;;;;;;;;;;5060768;28;20036;-75
2023/06/06 09:59:07;;;;;;;7.15;3.10;;;;;;;;;;5077377;28;20109;-75
2023/06/06 10:01:37;;;;;;;7.20;3.65;;;;;;;;;;5055142;28;20062;-75
2023/06/06 10:04:04;;;;;;;5.97;3.42;;;;;;;;;;5061733;28;20500;-75
2023/06/06 10:06:38;;;;;;;9.82;3.53;;;;;;;;;;5057924;28;20031;-75
2023/06/06 10:09:05;;;;;;;8.10;3.58;;;;;;;;;;5075408;28;20111;-76
2023/06/06 10:11:33;;;;;;;8.95;4.32;;;;;;;;;;5056343;28;20037;-75
2023/06/06 10:13:59;;;;;;;6.43;3.65;;;;;;;;;;5077679;28;20024;-75
2023/06/06 10:16:27;;;;;;;7.15;3.55;;;;;;;;;;5076407;28;20029;-75
2023/06/06 10:18:53;;;;;;;7.60;3.47;;;;;;;;;;5079114;28;20066;-75
2023/06/06 10:21:19;;;;;;;8.18;4.28;;;;;;;;;;5081358;28;20020;-75
2023/06/06 10:23:45;;;;;;;6.15;3.63;;;;;;;;;;5058943;28;20468;-75
2023/06/06 10:26:18;;;;;;;9.57;3.92;;;;;;;;;;5076119;28;20027;-75
2023/06/06 10:28:59;;;;;;;7.85;3.70;;;;;;;;;;5058269;28;20024;-76
2023/06/06 10:31:55;;;;;;;8.43;3.65;;;;;;;;;;5056668;28;20487;-77
2023/06/06 10:34:27;;;;;;;4.95;3.13;;;;;;;;;;5078388;28;20020;-75
2023/06/06 10:36:52;;;;;;;5.28;3.15;;;;;;;;;;5074884;28;20031;-76
2023/06/06 10:39:19;;;;;;;5.97;3.05;;;;;;;;;;5058080;28;20044;-75
2023/06/06 10:42:05;;;;;;;7.10;3.20;;;;;;;;;;5059963;28;20357;-75
2023/06/06 10:44:55;;;;;;;7.10;3.53;;;;;;;;;;5081659;28;20028;-75
2023/06/06 10:47:21;;;;;;;8.60;3.75;;;;;;;;;;5063972;28;20066;-75
2023/06/06 10:50:08;;;;;;;6.47;3.67;;;;;;;;;;5081539;28;20449;-75
2023/06/06 10:52:52;;;;;;;7.75;3.20;;;;;;;;;;5076959;28;20024;-75
2023/06/06 10:55:39;;;;;;;5.97;3.47;;;;;;;;;;5079932;28;20025;-75
2023/06/06 10:58:16;;;;;;;9.35;4.05;;;;;;;;;;5081375;28;20028;-75
2023/06/06 11:00:50;;;;;;;6.07;2.97;;;;;;;;;;5057606;28;20027;-75
2023/06/06 11:03:19;;;;;;;9.45;3.53;;;;;;;;;;5072995;28;20020;-75
2023/06/06 11:06:00;;;;;;;6.60;3.20;;;;;;;;;;5058071;28;20020;-76
2023/06/06 11:08:57;;;;;;;6.28;2.97;;;;;;;;;;5078351;28;20028;-75
2023/06/06 11:11:33;;;;;;;6.20;2.80;;;;;;;;;;5062474;28;20033;-75
2023/06/06 11:14:01;;;;;;;8.65;3.40;;;;;;;;;;5056704;28;20551;-75
2023/06/06 11:16:38;;;;;;;5.88;2.85;;;;;;;;;;5088849;28;20024;-75
2023/06/06 11:19:11;;;;;;;6.38;3.28;;;;;;;;;;5078758;28;20093;-75
2023/06/06 11:21:47;;;;;;;5.70;3.78;;;;;;;;;;5082983;28;20065;-76
2023/06/06 11:24:13;;;;;;;7.75;3.92;;;;;;;;;;5078984;28;20501;-75
2023/06/06 11:26:41;;;;;;;5.82;2.90;;;;;;;;;;5074267;28;20491;-75
2023/06/06 11:29:08;;;;;;;5.82;3.10;;;;;;;;;;5077093;28;20028;-75
2023/06/06 11:31:35;;;;;;;9.65;3.55;;;;;;;;;;5073685;28;20024;-76
2023/06/06 11:34:11;;;;;;;10.43;4.00;;;;;;;;;;5080382;28;20595;-76
2023/06/06 11:36:41;;;;;;;5.43;3.00;;;;;;;;;;5079936;28;20056;-75
2023/06/06 11:39:12;;;;;;;10.75;3.88;;;;;;;;;;5078419;28;20036;-76
2023/06/06 11:41:45;;;;;;;5.70;3.20;;;;;;;;;;5073297;28;20036;-75
2023/06/06 11:44:12;;;;;;;4.93;2.95;;;;;;;;;;5080138;28;20035;-77
2023/06/06 11:46:48;;;;;;;6.20;2.90;;;;;;;;;;5080414;28;20064;-75
2023/06/06 11:49:14;;;;;;;6.50;3.10;;;;;;;;;;5080483;28;20031;-75
2023/06/06 11:51:40;;;;;;;8.60;2.92;;;;;;;;;;5078876;28;20021;-75
2023/06/06 11:54:13;;;;;;;6.65;3.13;;;;;;;;;;5083814;28;20376;-76
2023/06/06 11:56:39;;;;;;;6.65;3.00;;;;;;;;;;5076141;28;20031;-75
2023/06/06 11:59:05;;;;;;;5.55;2.65;;;;;;;;;;5085782;28;20020;-76
2023/06/06 12:01:31;;;;;;;7.05;3.00;;;;;;;;;;5059757;28;20035;-75
2023/06/06 12:03:57;;;;;;;5.50;2.97;;;;;;;;;;5070262;28;20028;-75
2023/06/06 12:06:22;;;;;;;6.18;3.30;;;;;;;;;;5061136;28;20017;-75
2023/06/06 12:08:48;;;;;;;5.53;2.97;;;;;;;;;;5054204;28;20083;-75
2023/06/06 12:11:24;;;;;;;5.85;3.60;;;;;;;;;;5084744;28;20033;-75
2023/06/06 12:13:50;;;;;;;6.22;3.00;;;;;;;;;;5058202;28;20033;-75
2023/06/06 12:16:29;;;;;;;6.30;3.40;;;;;;;;;;5066302;28;20387;-76
2023/06/06 12:18:55;;;;;;;7.25;2.75;;;;;;;;;;5084339;28;20484;-76
2023/06/06 12:21:21;;;;;;;4.60;2.80;;;;;;;;;;5088223;28;20020;-75
2023/06/06 12:23:47;;;;;;;3.78;2.40;;;;;;;;;;5069070;28;20502;-75
2023/06/06 12:26:16;;;;;;;5.82;3.20;;;;;;;;;;5084372;28;20447;-76
2023/06/06 12:29:00;;;;;;;7.15;3.13;;;;;;;;;;5079528;28;20081;-75
2023/06/06 12:31:27;;;;;;;6.13;3.20;;;;;;;;;;5089529;28;20442;-75
2023/06/06 12:33:53;;;;;;;7.53;3.30;;;;;;;;;;5064428;28;20020;-76
2023/06/06 12:36:21;;;;;;;7.20;2.72;;;;;;;;;;5076261;28;20082;-77
2023/06/06 12:39:00;;;;;;;5.55;3.20;;;;;;;;;;5082500;28;20613;-77
2023/06/06 12:41:35;;;;;;;5.10;2.67;;;;;;;;;;5084112;28;20052;-76
2023/06/06 12:44:06;;;;;;;7.28;3.30;;;;;;;;;;5080281;28;20032;-77
2023/06/06 12:46:32;;;;;;;6.68;3.00;;;;;;;;;;5055937;28;20020;-76
2023/06/06 12:48:58;;;;;;;7.95;3.35;;;;;;;;;;5074785;28;20019;-76
2023/06/06 12:51:24;;;;;;;6.72;2.60;;;;;;;;;;5082334;28;20043;-77
2023/06/06 12:53:50;;;;;;;4.28;2.65;;;;;;;;;;5076217;28;20542;-77
2023/06/06 12:56:15;;;;;;;4.60;2.50;;;;;;;;;;5083974;28;20495;-76
2023/06/06 12:58:40;;;;;;;6.38;3.28;;;;;;;;;;5079457;28;20516;-76
2023/06/06 13:01:06;;;;;;;4.93;2.92;;;;;;;;;;5086929;28;20475;-76
2023/06/06 13:03:31;;;;;;;6.70;2.63;;;;;;;;;;5062243;28;20471;-75
2023/06/06 13:05:57;;;;;;;5.18;2.70;;;;;;;;;;5075224;28;20040;-76
2023/06/06 13:08:22;;;;;;;5.80;3.10;;;;;;;;;;5076443;28;20038;-76
2023/06/06 13:10:48;;;;;;;6.68;3.08;;;;;;;;;;5075361;28;20476;-77
2023/06/06 13:13:13;;;;;;;5.32;3.00;;;;;;;;;;5077329;28;20046;-76
2023/06/06 13:15:39;;;;;;;8.52;2.80;;;;;;;;;;5086055;28;20444;-76
2023/06/06 13:18:04;;;;;;;5.15;2.78;;;;;;;;;;5074367;28;20459;-76
2023/06/06 13:20:31;;;;;;;6.22;3.20;;;;;;;;;;5073689;28;20023;-76
2023/06/06 13:22:57;;;;;;;6.20;3.22;;;;;;;;;;5062829;28;20447;-76
2023/06/06 13:25:22;;;;;;;6.18;3.17;;;;;;;;;;5074517;28;20020;-77
2023/06/06 13:27:48;;;;;;;5.43;3.17;;;;;;;;;;5057112;28;20417;-75
2023/06/06 13:30:14;;;;;;;8.40;3.00;;;;;;;;;;5077084;28;20119;-77
2023/06/06 13:32:39;;;;;;;6.10;2.80;;;;;;;;;;5061857;28;20060;-76
2023/06/06 13:35:05;;;;;;;5.28;3.50;;;;;;;;;;5077901;28;20055;-76
2023/06/06 13:37:31;;;;;;;5.43;2.92;;;;;;;;;;5074056;28;20396;-75
2023/06/06 13:39:56;;;;;;;8.65;3.15;;;;;;;;;;5065541;28;20020;-76
2023/06/06 13:42:22;;;;;;;6.18;3.47;;;;;;;;;;5075071;28;20042;-76
2023/06/06 13:44:47;;;;;;;5.70;3.00;;;;;;;;;;5076610;28;20024;-76
2023/06/06 13:47:13;;;;;;;7.63;2.72;;;;;;;;;;5073335;28;20119;-77
2023/06/06 13:49:39;;;;;;;7.20;2.95;;;;;;;;;;5060973;28;20431;-76
2023/06/06 13:52:09;;;;;;;6.63;2.80;;;;;;;;;;5079370;28;20027;-77
2023/06/06 13:54:35;;;;;;;6.32;2.78;;;;;;;;;;5075866;28;20409;-75
2023/06/06 13:57:02;;;;;;;6.60;2.50;;;;;;;;;;5077244;28;20035;-77
2023/06/06 13:59:28;;;;;;;4.88;2.60;;;;;;;;;;5076400;28;20043;-77
2023/06/06 14:01:54;;;;;;;5.60;2.75;;;;;;;;;;5059872;28;20024;-76
2023/06/06 14:04:19;;;;;;;6.28;2.72;;;;;;;;;;5077406;28;20032;-75
2023/06/06 14:06:45;;;;;;;7.03;3.22;;;;;;;;;;5079752;28;20505;-72
2023/06/06 14:09:14;;;;;;;5.60;2.80;;;;;;;;;;5074972;28;20490;-76
2023/06/06 14:11:39;;;;;;;6.20;3.08;;;;;;;;;;5055793;28;20045;-76
2023/06/06 14:14:05;;;;;;;7.78;3.20;;;;;;;;;;5079458;28;20154;-75
2023/06/06 14:16:31;;;;;;;6.00;2.92;;;;;;;;;;5076625;28;20050;-76
2023/06/06 14:18:57;;;;;;;7.25;2.75;;;;;;;;;;5081218;28;20051;-78
2023/06/06 14:21:56;;;;;;;5.25;2.53;;;;;;;;;;5055688;28;20025;-75
2023/06/06 14:24:14;;;;;;;5.93;2.60;;;;;;;;;;5079892;28;20034;-76
2023/06/06 14:26:39;;;;;;;5.90;2.92;;;;;;;;;;5060988;28;20024;-76
2023/06/06 14:29:05;;;;;;;5.78;2.78;;;;;;;;;;5061391;28;20500;-76
2023/06/06 14:31:30;;;;;;;7.47;3.05;;;;;;;;;;5063899;28;20396;-79
2023/06/06 14:33:55;;;;;;;5.50;2.72;;;;;;;;;;5062274;28;20028;-76
2023/06/06 14:36:22;;;;;;;6.70;2.70;;;;;;;;;;5071340;28;20028;-76
2023/06/06 14:38:47;;;;;;;6.00;2.60;;;;;;;;;;5077320;28;20118;-76
2023/06/06 14:41:13;;;;;;;5.03;2.53;;;;;;;;;;5076993;28;20107;-76
2023/06/06 14:43:38;;;;;;;6.05;2.55;;;;;;;;;;5057507;28;20472;-77
2023/06/06 14:46:03;;;;;;;6.35;2.97;;;;;;;;;;5061808;28;20047;-76